createdAt,value
2018-07-14T00:04:11.466Z,66.20
2018-07-14T00:09:14.513Z,66.00
2018-07-14T00:14:17.476Z,66.30
2018-07-14T00:19:20.006Z,66.30
2018-07-14T00:24:23.101Z,66.40
2018-07-14T00:29:25.692Z,66.80
2018-07-14T00:34:29.049Z,66.90
2018-07-14T00:39:31.817Z,66.90
2018-07-14T00:44:34.694Z,67.10
2018-07-14T00:49:37.299Z,66.80
2018-07-14T00:54:39.865Z,67.40
2018-07-14T00:59:42.573Z,67.40
2018-07-14T01:04:45.101Z,67.70
2018-07-14T01:09:47.636Z,67.70
2018-07-14T01:14:50.116Z,68.10
2018-07-14T01:19:53.304Z,67.80
2018-07-14T01:24:56.556Z,68.10
2018-07-14T01:29:59.040Z,68.10
2018-07-14T01:35:01.525Z,68.30
2018-07-14T01:40:04.826Z,68.30
2018-07-14T01:45:07.309Z,68.30
2018-07-14T01:50:11.129Z,68.50
2018-07-14T01:55:16.494Z,68.60
2018-07-14T02:00:20.634Z,68.40
2018-07-14T02:05:24.710Z,68.90
2018-07-14T02:10:28.052Z,68.40
2018-07-14T02:15:31.508Z,68.50
2018-07-14T02:20:35.498Z,68.80
2018-07-14T02:25:38.218Z,68.80
2018-07-14T02:30:41.171Z,69.10
2018-07-14T02:35:44.669Z,69.10
2018-07-14T02:40:48.832Z,69.20
2018-07-14T02:45:53.255Z,69.20
2018-07-14T02:50:56.250Z,69.50
2018-07-14T02:55:59.403Z,69.60
2018-07-14T03:01:07.021Z,69.60
2018-07-14T03:06:11.110Z,69.60
2018-07-14T03:11:15.654Z,69.30
2018-07-14T03:16:18.794Z,69.90
2018-07-14T03:21:21.785Z,70.00
2018-07-14T03:26:25.117Z,70.20
2018-07-14T03:31:28.360Z,70.10
2018-07-14T03:36:30.846Z,70.00
2018-07-14T03:41:33.433Z,70.10
2018-07-14T03:46:36.761Z,70.50
2018-07-14T03:51:39.340Z,70.40
2018-07-14T03:56:41.826Z,70.50
2018-07-14T04:01:44.305Z,70.80
2018-07-14T04:06:46.839Z,70.40
2018-07-14T04:11:49.316Z,70.70
2018-07-14T04:16:51.804Z,70.90
2018-07-14T04:21:54.337Z,70.80
2018-07-14T04:26:57.648Z,71.40
2018-07-14T04:32:00.192Z,71.40
2018-07-14T04:37:02.628Z,71.30
2018-07-14T04:42:05.120Z,71.30
2018-07-14T04:47:07.894Z,70.70
2018-07-14T04:52:11.437Z,71.50
2018-07-14T04:57:14.310Z,71.70
2018-07-14T05:02:18.416Z,71.40
2018-07-14T05:07:22.151Z,71.10
2018-07-14T05:12:25.392Z,71.60
2018-07-14T05:17:27.941Z,71.60
2018-07-14T05:22:30.853Z,71.30
2018-07-14T05:27:33.350Z,71.40
2018-07-14T05:32:35.882Z,71.00
2018-07-14T05:37:38.552Z,71.30
2018-07-14T05:42:41.598Z,71.80
2018-07-14T05:47:45.244Z,71.80
2018-07-14T05:52:48.974Z,72.10
2018-07-14T05:57:52.811Z,72.00
2018-07-14T06:02:56.347Z,72.00
2018-07-14T06:07:59.064Z,71.50
2018-07-14T06:13:01.521Z,72.50
2018-07-14T06:18:04.059Z,72.70
2018-07-14T06:23:07.310Z,71.40
2018-07-14T06:28:09.877Z,71.30
2018-07-14T06:33:13.746Z,70.70
2018-07-14T06:38:16.425Z,71.00
2018-07-14T06:43:23.296Z,70.50
2018-07-14T06:48:25.804Z,68.90
2018-07-14T06:53:29.120Z,67.70
2018-07-14T06:58:31.761Z,67.70
2018-07-14T07:03:34.197Z,67.80
2018-07-14T07:08:36.710Z,66.20
2018-07-14T07:13:39.265Z,65.30
2018-07-14T07:18:42.521Z,65.20
2018-07-14T07:23:45.841Z,64.20
2018-07-14T07:28:49.252Z,63.70
2018-07-14T07:33:52.441Z,63.50
2018-07-14T07:38:54.853Z,63.10
2018-07-14T07:43:57.362Z,62.00
2018-07-14T07:48:59.877Z,61.50
2018-07-14T07:54:02.362Z,61.50
2018-07-14T07:59:04.918Z,60.80
2018-07-14T08:04:07.357Z,59.80
2018-07-14T08:09:10.060Z,58.70
2018-07-14T08:14:12.557Z,58.20
2018-07-14T08:19:15.045Z,57.40
2018-07-14T08:24:17.528Z,56.20
2018-07-14T08:29:20.094Z,54.20
2018-07-14T08:34:22.636Z,53.50
2018-07-14T08:39:25.129Z,53.80
2018-07-14T08:44:27.649Z,53.60
2018-07-14T08:49:30.965Z,51.60
2018-07-14T08:54:33.994Z,51.50
2018-07-14T08:59:36.485Z,50.60
2018-07-14T09:04:39.072Z,50.40
2018-07-14T09:09:41.577Z,50.70
2018-07-14T09:14:44.068Z,49.10
2018-07-14T09:19:47.785Z,50.80
2018-07-14T09:24:50.281Z,50.70
2018-07-14T09:29:52.787Z,49.50
2018-07-14T09:34:55.285Z,48.10
2018-07-14T09:39:57.782Z,46.50
2018-07-14T09:45:01.099Z,45.00
2018-07-14T09:50:03.908Z,44.90
2018-07-14T09:55:06.551Z,47.00
2018-07-14T10:00:09.014Z,46.80
2018-07-14T10:05:11.493Z,44.50
2018-07-14T10:10:14.746Z,41.40
2018-07-14T10:15:17.313Z,41.30
2018-07-14T10:20:19.908Z,44.10
2018-07-14T10:25:22.426Z,42.30
2018-07-14T10:30:25.733Z,41.80
2018-07-14T10:35:29.045Z,40.70
2018-07-14T10:40:31.525Z,40.70
2018-07-14T10:45:34.012Z,41.40
2018-07-14T10:50:36.541Z,42.10
2018-07-14T10:55:39.025Z,42.40
2018-07-14T11:00:41.530Z,42.00
2018-07-14T11:05:44.084Z,41.40
2018-07-14T11:10:46.585Z,49.50
2018-07-14T11:15:49.077Z,53.60
2018-07-14T11:20:51.561Z,51.70
2018-07-14T11:25:54.148Z,49.10
2018-07-14T11:30:57.438Z,52.20
2018-07-14T11:36:00.451Z,52.20
2018-07-14T11:41:03.023Z,53.90
2018-07-14T11:46:05.609Z,54.30
2018-07-14T11:51:08.172Z,56.00
2018-07-14T11:56:10.918Z,55.80
2018-07-14T12:01:13.454Z,55.90
2018-07-14T12:06:15.972Z,56.80
2018-07-14T12:11:18.537Z,57.80
2018-07-14T12:16:21.155Z,59.20
2018-07-14T12:21:23.698Z,60.60
2018-07-14T12:26:26.205Z,60.30
2018-07-14T12:31:28.777Z,60.90
2018-07-14T12:36:31.374Z,61.50
2018-07-14T12:41:33.929Z,62.20
2018-07-14T12:46:36.444Z,62.50
2018-07-14T12:51:38.957Z,61.90
2018-07-14T12:56:41.554Z,62.00
2018-07-14T13:01:44.154Z,62.10
2018-07-14T13:06:46.743Z,62.40
2018-07-14T13:11:49.247Z,62.50
2018-07-14T13:16:51.773Z,62.40
2018-07-14T13:21:54.389Z,62.90
2018-07-14T13:26:56.968Z,62.50
2018-07-14T13:31:59.482Z,61.60
2018-07-14T13:37:02.101Z,61.80
2018-07-14T13:42:04.674Z,61.80
2018-07-14T13:47:07.194Z,60.80
2018-07-14T13:52:09.701Z,61.10
2018-07-14T13:57:12.293Z,62.10
2018-07-14T14:02:16.474Z,62.20
2018-07-14T14:07:19.721Z,62.10
2018-07-14T14:12:22.286Z,62.70
2018-07-14T14:17:25.333Z,63.10
2018-07-14T14:22:27.880Z,61.90
2018-07-14T14:27:30.882Z,62.10
2018-07-14T14:32:33.762Z,61.30
2018-07-14T14:37:36.368Z,61.50
2018-07-14T14:42:39.146Z,61.00
2018-07-14T14:47:42.196Z,60.40
2018-07-14T14:52:44.929Z,60.90
2018-07-14T14:57:47.612Z,60.20
2018-07-14T15:02:51.546Z,59.80
2018-07-14T15:07:54.980Z,59.70
2018-07-14T15:12:57.782Z,59.50
2018-07-14T15:18:00.875Z,59.30
2018-07-14T15:23:03.971Z,59.60
2018-07-14T15:28:06.846Z,59.40
2018-07-14T15:33:09.722Z,59.20
2018-07-14T15:38:11.904Z,59.10
2018-07-14T15:43:15.293Z,58.90
2018-07-14T15:48:17.783Z,58.80
2018-07-14T15:53:20.316Z,57.70
2018-07-14T15:58:23.248Z,56.90
2018-07-14T16:03:26.233Z,56.80
2018-07-14T16:08:29.557Z,57.60
2018-07-14T16:13:32.152Z,57.50
2018-07-14T16:18:34.649Z,56.70
2018-07-14T16:23:37.140Z,56.80
2018-07-14T16:28:39.645Z,56.60
2018-07-14T16:33:42.134Z,56.20
2018-07-14T16:38:44.634Z,56.30
2018-07-14T16:43:47.117Z,55.20
2018-07-14T16:48:49.613Z,56.20
2018-07-14T16:53:52.133Z,56.60
2018-07-14T16:58:55.381Z,56.20
2018-07-14T17:03:57.873Z,56.20
2018-07-14T17:09:00.449Z,56.40
2018-07-14T17:14:03.078Z,56.40
2018-07-14T17:19:05.413Z,55.90
2018-07-14T17:24:07.934Z,55.60
2018-07-14T17:29:11.310Z,55.30
2018-07-14T17:34:14.077Z,55.20
2018-07-14T17:39:17.493Z,54.20
2018-07-14T17:44:20.054Z,54.10
2018-07-14T17:54:30.304Z,55.30
2018-07-14T17:59:34.683Z,56.70
2018-07-14T18:04:37.895Z,57.10
2018-07-14T18:09:42.154Z,57.60
2018-07-14T18:14:45.052Z,58.30
2018-07-14T18:19:47.702Z,58.50
2018-07-14T18:24:50.894Z,58.80
2018-07-14T18:29:54.531Z,59.40
2018-07-14T18:34:57.024Z,60.20
2018-07-14T18:40:00.276Z,62.50
2018-07-14T18:45:03.167Z,62.40
2018-07-14T18:50:05.664Z,63.80
2018-07-14T18:55:08.149Z,64.20
2018-07-14T19:00:10.634Z,64.40
2018-07-14T19:05:13.918Z,64.20
2018-07-14T19:10:16.401Z,64.20
2018-07-14T19:15:18.913Z,64.50
2018-07-14T19:20:21.405Z,64.40
2018-07-14T19:25:23.900Z,64.80
2018-07-14T19:30:27.138Z,64.50
2018-07-14T19:35:30.706Z,64.90
2018-07-14T19:40:34.632Z,65.40
2018-07-14T19:45:37.253Z,64.80
2018-07-14T19:50:40.130Z,65.00
2018-07-14T19:55:42.811Z,65.00
2018-07-14T20:00:47.334Z,65.30
2018-07-14T20:05:50.563Z,65.20
2018-07-14T20:10:53.197Z,65.90
2018-07-14T20:15:56.813Z,66.50
2018-07-14T20:20:59.684Z,67.00
2018-07-14T20:26:02.624Z,67.40
2018-07-14T20:31:05.864Z,67.80
2018-07-14T20:36:08.523Z,67.20
2018-07-14T20:41:11.507Z,67.10
2018-07-14T20:46:14.587Z,67.10
2018-07-14T20:51:17.400Z,66.80
2018-07-14T20:56:20.106Z,66.70
2018-07-14T21:01:22.903Z,66.50
2018-07-14T21:06:26.964Z,66.90
2018-07-14T21:11:29.938Z,66.90
2018-07-14T21:16:32.823Z,67.10
2018-07-14T21:21:35.437Z,67.40
2018-07-14T21:26:38.242Z,67.70
2018-07-14T21:31:41.855Z,68.00
2018-07-14T21:36:44.787Z,67.80
2018-07-14T21:41:48.377Z,67.80
2018-07-14T21:46:51.029Z,67.90
2018-07-14T21:51:53.724Z,67.80
2018-07-14T21:56:56.388Z,67.70
2018-07-14T22:01:59.473Z,67.70
2018-07-14T22:07:02.326Z,68.00
2018-07-14T22:12:05.777Z,68.10
2018-07-14T22:17:09.066Z,68.60
2018-07-14T22:22:12.095Z,68.50
2018-07-14T22:27:14.780Z,68.70
2018-07-14T22:32:17.756Z,68.70
2018-07-14T22:37:20.702Z,69.00
2018-07-14T22:42:23.534Z,69.00
2018-07-14T22:47:26.123Z,69.00
2018-07-14T22:52:32.535Z,69.40
2018-07-14T22:57:36.258Z,69.40
2018-07-14T23:02:39.610Z,69.60
2018-07-14T23:07:42.236Z,69.80
2018-07-14T23:12:44.833Z,69.80
2018-07-14T23:17:48.047Z,70.00
2018-07-14T23:22:51.022Z,69.80
2018-07-14T23:27:54.655Z,69.90
2018-07-14T23:32:58.065Z,70.10
2018-07-14T23:38:00.660Z,70.40
2018-07-14T23:43:03.791Z,70.50
2018-07-14T23:48:07.115Z,70.50
2018-07-14T23:53:09.733Z,70.70
2018-07-14T23:58:12.553Z,70.80
